Chehalis, WA (98532)

7:21 AM PST on February 09, 2016 (GMT -0800)
Surprise Valley - Newaukum | | Change Station
CLOSE
Current Station
Personal Weather Station
Location: Chehalis, WA
Elevation: 223 ft
Nearby Weather Stations

Elev 223 ft 46.62 °N, 123.00 °W | Updated 17 seconds ago

Fog
Fog
34.7 °F
Feels Like 35 °F
N
0.0
Wind Variable Wind from SSW

Today
High -- | Low -- °F
--% Chance of Precip.
Yesterday
High -- | Low -- °F
Precip. -- in
Pressure 30.20 in
Visibility 0.2 miles
Clouds Overcast 400 ft
Windchill 35 °F
Dew Point 34 °F
Humidity 98%
Rainfall 0.00 in
Snow Depth Not available.
7:25 AM 5:27 PM
New Moon, 1% visible
METAR KCLS 091515Z AUTO 00000KT 1/4SM FG OVC004 03/03 A3020 RMK AO2
Pressure 30.20 in
Visibility 0.2 miles
Clouds Overcast 400 ft
Windchill 35 °F
Dew Point 34 °F
Humidity 98%
Rainfall 0.00 in
Snow Depth Not available.
7:25 AM 5:27 PM
New Moon, 1% visible
METAR KCLS 091515Z AUTO 00000KT 1/4SM FG OVC004 03/03 A3020 RMK AO2

10-Day Weather Forecast

Almanac

Astronomy

Feb. 09, 2016 Rise Set
Actual Time
Civil Twilight
Nautical Twilight
Astronomical Twilight
Moon
Length of Visible Light
Length of Day
Tomorrow will be .
, % of the Moon is Illuminated

Today's Extremes

State Highs State Lows

Community

WunderPhotos

Upload Photos

1,891,619 photos uploaded!

WunderBlog® & News

Nearby

Air Quality

  Air Quality AQ Index Pollutant
Not available.

Snow Depth

Station Depth Elevation

Earthquake Activity

City Distance Mag. Time & Date
Minimum magnitude displayed is 2.5.

Coastal Water Temperatures

Place Temperature

Stations

Nearby Weather Stations

Station Location Temp. Windchill Dew Point Humidity Wind Precip. Elev Updated Type
                   

Watches & Warnings

There are currently no watches in effect.